createdAt,value
2019-04-06T00:00:27.016Z,60.20
2019-04-06T00:01:27.029Z,59.10
2019-04-06T00:02:26.999Z,60.10
2019-04-06T00:03:26.982Z,61.50
2019-04-06T00:04:26.979Z,63.10
2019-04-06T00:05:26.980Z,61.20
2019-04-06T00:06:26.969Z,60.50
2019-04-06T00:07:26.949Z,60.40
2019-04-06T00:08:26.960Z,58.70
2019-04-06T00:09:26.918Z,60.10
2019-04-06T00:10:26.902Z,62.60
2019-04-06T00:11:26.922Z,61.20
2019-04-06T00:12:26.902Z,58.80
2019-04-06T00:13:26.887Z,58.70
2019-04-06T00:14:26.870Z,60.20
2019-04-06T00:15:26.851Z,62.00
2019-04-06T00:16:26.866Z,59.40
2019-04-06T00:17:26.834Z,59.30
2019-04-06T00:18:26.816Z,58.90
2019-04-06T00:19:26.806Z,59.40
2019-04-06T00:20:26.798Z,59.80
2019-04-06T00:21:26.814Z,58.50
2019-04-06T00:22:26.774Z,60.10
2019-04-06T00:23:26.767Z,60.00
2019-04-06T00:24:26.745Z,57.70
2019-04-06T00:25:26.752Z,62.30
2019-04-06T00:26:26.755Z,59.80
2019-04-06T00:27:26.734Z,61.80
2019-04-06T00:28:26.719Z,61.20
2019-04-06T00:29:26.734Z,58.60
2019-04-06T00:30:26.681Z,60.40
2019-04-06T00:31:26.688Z,61.90
2019-04-06T00:32:26.684Z,61.30
2019-04-06T00:33:26.657Z,61.50
2019-04-06T00:34:26.649Z,60.80
2019-04-06T00:35:26.648Z,62.90
2019-04-06T00:36:26.625Z,60.60
2019-04-06T00:37:26.626Z,62.60
2019-04-06T00:38:26.613Z,60.80
2019-04-06T00:39:26.586Z,60.80
2019-04-06T00:40:26.581Z,59.60
2019-04-06T00:41:26.573Z,60.60
2019-04-06T00:42:26.591Z,59.40
2019-04-06T00:43:26.554Z,57.90
2019-04-06T00:44:26.545Z,59.80
2019-04-06T00:45:26.522Z,58.70
2019-04-06T00:46:26.522Z,59.80
2019-04-06T00:47:26.518Z,58.40
2019-04-06T00:48:26.519Z,60.10
2019-04-06T00:49:26.490Z,58.40
2019-04-06T00:50:26.478Z,58.00
2019-04-06T00:51:26.476Z,58.50
2019-04-06T00:52:26.473Z,58.90
2019-04-06T00:53:26.439Z,58.20
2019-04-06T00:54:26.428Z,57.50
2019-04-06T00:55:26.414Z,60.10
2019-04-06T00:56:26.407Z,57.70
2019-04-06T00:57:26.422Z,58.80
2019-04-06T00:58:26.397Z,58.20
2019-04-06T00:59:26.384Z,58.10
2019-04-06T01:00:26.361Z,58.50
2019-04-06T01:01:26.359Z,57.30
2019-04-06T01:02:26.360Z,58.70
2019-04-06T01:04:46.473Z,52.90
2019-04-06T01:05:47.442Z,59.60
2019-04-06T01:06:47.435Z,60.30
2019-04-06T01:07:47.442Z,56.70
2019-04-06T01:08:47.423Z,57.80
2019-04-06T01:09:48.304Z,59.40
2019-04-06T01:10:47.403Z,60.20
2019-04-06T01:11:47.383Z,58.10
2019-04-06T01:12:47.389Z,59.20
2019-04-06T01:13:47.364Z,60.00
2019-04-06T01:14:47.378Z,61.20
2019-04-06T01:15:47.348Z,60.20
2019-04-06T01:16:47.339Z,62.10
2019-04-06T01:17:47.329Z,59.20
2019-04-06T01:18:47.338Z,60.20
2019-04-06T01:19:47.305Z,59.40
2019-04-06T01:20:47.292Z,59.50
2019-04-06T01:21:47.271Z,57.60
2019-04-06T01:22:47.274Z,57.70
2019-04-06T01:23:47.266Z,58.80
2019-04-06T01:24:47.255Z,60.20
2019-04-06T01:25:47.234Z,58.90
2019-04-06T01:26:47.226Z,58.90
2019-04-06T01:27:47.219Z,58.20
2019-04-06T01:28:47.225Z,57.80
2019-04-06T01:29:47.199Z,57.10
2019-04-06T01:30:47.216Z,56.80
2019-04-06T01:31:47.176Z,56.70
2019-04-06T01:32:47.166Z,57.40
2019-04-06T01:33:47.173Z,56.60
2019-04-06T01:34:47.143Z,55.90
2019-04-06T01:35:47.127Z,55.40
2019-04-06T01:36:47.122Z,56.60
2019-04-06T01:37:47.104Z,55.50
2019-04-06T01:38:47.158Z,56.20
2019-04-06T01:39:47.082Z,55.50
2019-04-06T01:40:47.067Z,56.90
2019-04-06T01:41:47.074Z,54.60
2019-04-06T01:42:47.059Z,55.30
2019-04-06T01:43:47.059Z,54.70
2019-04-06T01:44:47.044Z,56.80
2019-04-06T01:45:47.109Z,55.00
2019-04-06T01:46:47.065Z,54.40
2019-04-06T01:47:47.827Z,55.50
2019-04-06T01:48:47.346Z,55.20
2019-04-06T01:49:47.817Z,54.20
2019-04-06T01:50:47.807Z,55.50
2019-04-06T01:51:47.806Z,55.20
2019-04-06T01:52:47.797Z,55.50
2019-04-06T01:53:46.998Z,54.50
2019-04-06T01:54:46.997Z,54.30
2019-04-06T01:55:46.952Z,56.00
2019-04-06T01:56:46.894Z,56.50
2019-04-06T01:57:46.888Z,55.60
2019-04-06T01:58:46.896Z,55.50
2019-04-06T01:59:46.873Z,54.50
2019-04-06T02:00:46.860Z,55.80
2019-04-06T02:01:46.850Z,55.10
2019-04-06T02:02:46.828Z,56.30
2019-04-06T02:03:46.886Z,54.60
2019-04-06T02:04:46.833Z,55.80
2019-04-06T02:05:46.815Z,52.70
2019-04-06T02:06:46.792Z,54.20
2019-04-06T02:07:46.781Z,56.50
2019-04-06T02:08:46.829Z,55.70
2019-04-06T02:09:46.866Z,55.60
2019-04-06T02:10:46.740Z,56.20
2019-04-06T02:11:46.737Z,54.00
2019-04-06T02:12:46.752Z,56.90
2019-04-06T02:13:46.708Z,56.40
2019-04-06T02:14:46.713Z,55.00
2019-04-06T02:15:46.720Z,58.00
2019-04-06T02:16:46.688Z,57.60
2019-04-06T02:17:46.660Z,56.80
2019-04-06T02:18:46.662Z,57.90
2019-04-06T02:19:46.659Z,57.90
2019-04-06T02:20:46.638Z,57.90
2019-04-06T02:21:46.642Z,58.70
2019-04-06T02:22:46.618Z,57.20
2019-04-06T02:23:46.645Z,58.90
2019-04-06T02:24:46.612Z,59.90
2019-04-06T02:25:46.575Z,58.80
2019-04-06T02:26:46.576Z,59.30
2019-04-06T02:27:46.559Z,57.00
2019-04-06T02:28:46.544Z,57.90
2019-04-06T02:29:46.642Z,58.20
2019-04-06T02:30:46.546Z,57.40
2019-04-06T02:31:46.548Z,58.00
2019-04-06T02:32:46.508Z,59.50
2019-04-06T02:33:46.497Z,57.00
2019-04-06T02:34:46.478Z,59.20
2019-04-06T02:35:46.498Z,57.40
2019-04-06T02:36:46.454Z,57.80
2019-04-06T02:37:46.610Z,58.90
2019-04-06T02:38:47.406Z,59.40
2019-04-06T02:39:46.425Z,57.30
2019-04-06T02:40:46.518Z,59.20
2019-04-06T02:41:46.403Z,59.70
2019-04-06T02:42:46.393Z,58.10
2019-04-06T02:43:46.393Z,58.60
2019-04-06T02:44:46.383Z,59.90
2019-04-06T02:45:46.373Z,60.70
2019-04-06T02:46:46.360Z,58.90
2019-04-06T02:47:46.338Z,60.00
2019-04-06T02:48:46.334Z,60.20
2019-04-06T02:49:46.322Z,60.60
2019-04-06T02:50:46.340Z,62.10
2019-04-06T02:51:46.301Z,60.40
2019-04-06T02:52:46.296Z,60.30
2019-04-06T02:53:46.660Z,60.00
2019-04-06T02:54:46.272Z,62.70
2019-04-06T02:55:46.267Z,61.20
2019-04-06T02:56:47.868Z,60.90
2019-04-06T02:57:46.233Z,61.70
2019-04-06T02:58:46.215Z,61.80
2019-04-06T02:59:46.207Z,62.20
2019-04-06T03:00:46.495Z,61.60
2019-04-06T03:01:46.210Z,63.10
2019-04-06T03:02:46.177Z,62.40
2019-04-06T03:03:46.173Z,63.00
2019-04-06T03:05:55.349Z,57.30
2019-04-06T03:06:56.362Z,62.60
2019-04-06T03:07:56.321Z,64.70
2019-04-06T03:08:56.316Z,65.20
2019-04-06T03:09:56.365Z,64.60
2019-04-06T03:10:56.301Z,64.00
2019-04-06T03:11:56.313Z,62.80
2019-04-06T03:12:56.284Z,64.70
2019-04-06T03:13:56.491Z,64.20
2019-04-06T03:14:56.259Z,64.30
2019-04-06T03:15:56.360Z,67.20
2019-04-06T03:16:56.250Z,66.70
2019-04-06T03:17:56.227Z,65.70
2019-04-06T03:18:56.209Z,65.00
2019-04-06T03:19:56.207Z,66.20
2019-04-06T03:20:56.285Z,63.10
2019-04-06T03:21:56.197Z,65.60
2019-04-06T03:22:56.175Z,64.80
2019-04-06T03:23:56.211Z,66.80
2019-04-06T03:24:56.145Z,65.10
2019-04-06T03:25:56.177Z,64.40
2019-04-06T03:27:02.278Z,65.30
2019-04-06T03:27:56.215Z,63.90
2019-04-06T03:28:56.113Z,64.20
2019-04-06T03:29:58.142Z,64.60
2019-04-06T03:30:56.088Z,64.30
2019-04-06T03:31:56.087Z,64.20
2019-04-06T03:32:56.045Z,65.90
2019-04-06T03:33:56.348Z,65.80
2019-04-06T03:34:56.037Z,66.40
2019-04-06T03:35:56.030Z,64.60
2019-04-06T03:36:56.032Z,65.30
2019-04-06T03:37:56.137Z,65.20
2019-04-06T03:38:55.987Z,64.30
2019-04-06T03:39:55.989Z,64.80
2019-04-06T03:40:55.972Z,64.40
2019-04-06T03:41:55.987Z,63.50
2019-04-06T03:42:55.952Z,63.10
2019-04-06T03:43:55.937Z,62.30
2019-04-06T03:44:55.971Z,63.60
2019-04-06T03:45:55.920Z,64.00
2019-04-06T03:46:55.913Z,63.90
2019-04-06T03:47:55.961Z,63.20
2019-04-06T03:48:55.878Z,64.10
2019-04-06T03:49:55.894Z,62.70
2019-04-06T03:50:55.869Z,63.70
2019-04-06T03:51:55.853Z,63.70
2019-04-06T03:52:55.848Z,64.40
2019-04-06T03:53:55.829Z,64.70
2019-04-06T03:54:55.824Z,63.40
2019-04-06T03:55:55.854Z,61.90
2019-04-06T03:56:55.794Z,66.00
2019-04-06T03:57:55.801Z,66.30
2019-04-06T03:58:55.761Z,64.10
2019-04-06T03:59:55.762Z,65.00
2019-04-06T04:00:55.757Z,64.00
2019-04-06T04:01:55.742Z,64.90
2019-04-06T04:02:56.632Z,64.50
2019-04-06T04:03:55.713Z,65.80
2019-04-06T04:04:55.697Z,64.30
2019-04-06T04:05:55.701Z,66.80
2019-04-06T04:06:55.842Z,66.60
2019-04-06T04:07:55.688Z,65.80
2019-04-06T04:08:55.672Z,66.40
2019-04-06T04:09:55.642Z,67.00
2019-04-06T04:10:55.626Z,65.20
2019-04-06T04:11:55.619Z,67.80
2019-04-06T04:12:55.641Z,67.20
2019-04-06T04:13:55.596Z,68.80
2019-04-06T04:14:55.617Z,69.20
2019-04-06T04:15:57.122Z,67.80
2019-04-06T04:16:55.561Z,68.70
2019-04-06T04:17:55.581Z,69.00
2019-04-06T04:18:55.699Z,70.60
2019-04-06T04:19:55.544Z,70.90
2019-04-06T04:20:55.521Z,70.90
2019-04-06T04:21:55.511Z,70.70
2019-04-06T04:22:55.520Z,68.80
2019-04-06T04:23:55.489Z,71.10
2019-04-06T04:24:55.497Z,71.20
2019-04-06T04:25:55.492Z,71.70
2019-04-06T04:26:55.479Z,72.90
2019-04-06T04:27:55.473Z,72.80
2019-04-06T04:28:55.442Z,73.70
2019-04-06T04:29:55.491Z,73.10
2019-04-06T04:30:55.461Z,74.20
2019-04-06T04:31:55.420Z,72.70
2019-04-06T04:32:55.411Z,74.40
2019-04-06T04:33:55.453Z,72.20
2019-04-06T04:34:55.376Z,74.70
2019-04-06T04:35:55.366Z,75.50
2019-04-06T04:36:55.489Z,72.90
2019-04-06T04:37:55.337Z,74.60
2019-04-06T04:38:55.360Z,76.00
2019-04-06T04:39:55.337Z,75.90
2019-04-06T04:40:55.517Z,75.60
2019-04-06T04:41:55.313Z,74.70
2019-04-06T04:42:55.278Z,78.30
2019-04-06T04:43:55.288Z,76.90
2019-04-06T04:44:55.278Z,74.90
2019-04-06T04:45:55.431Z,77.60
2019-04-06T04:46:55.242Z,79.00
2019-04-06T04:47:55.223Z,79.30
2019-04-06T04:48:55.259Z,77.40
2019-04-06T04:49:55.211Z,79.70
2019-04-06T04:50:55.191Z,79.80
2019-04-06T04:51:55.270Z,80.30
2019-04-06T04:52:55.253Z,82.30
2019-04-06T04:53:55.180Z,81.30
2019-04-06T04:54:55.150Z,80.40
2019-04-06T04:55:55.143Z,81.40
2019-04-06T04:56:55.150Z,82.00
2019-04-06T04:57:55.110Z,81.80
2019-04-06T04:58:55.113Z,81.40
2019-04-06T04:59:55.091Z,82.00
2019-04-06T05:00:55.152Z,81.20
2019-04-06T05:01:55.074Z,82.60
2019-04-06T05:02:55.070Z,82.70
2019-04-06T05:03:55.078Z,82.90
2019-04-06T05:04:55.039Z,81.80
2019-04-06T05:07:04.520Z,74.90
2019-04-06T05:08:05.511Z,81.00
2019-04-06T05:09:05.515Z,83.10
2019-04-06T05:10:05.716Z,83.20
2019-04-06T05:11:05.472Z,80.00
2019-04-06T05:12:05.458Z,83.90
2019-04-06T05:13:05.642Z,82.80
2019-04-06T05:14:05.707Z,82.60
2019-04-06T05:15:05.486Z,84.00
2019-04-06T05:16:05.414Z,85.90
2019-04-06T05:17:05.493Z,84.10
2019-04-06T05:18:05.404Z,83.10
2019-04-06T05:19:05.407Z,81.90
2019-04-06T05:20:05.369Z,81.20
2019-04-06T05:21:05.357Z,82.90
2019-04-06T05:22:05.361Z,82.90
2019-04-06T05:23:05.505Z,82.80
2019-04-06T05:24:05.362Z,83.00
2019-04-06T05:25:05.583Z,82.20
2019-04-06T05:26:05.406Z,82.60
2019-04-06T05:27:05.296Z,82.80
2019-04-06T05:28:05.307Z,79.90
2019-04-06T05:29:05.268Z,83.70
2019-04-06T05:30:05.407Z,83.00
2019-04-06T05:31:05.247Z,81.20
2019-04-06T05:32:05.247Z,80.80
2019-04-06T05:33:05.266Z,79.80
2019-04-06T05:34:05.219Z,80.10
2019-04-06T05:35:05.230Z,79.80
2019-04-06T05:36:05.205Z,78.90
2019-04-06T05:37:05.191Z,81.10
2019-04-06T05:38:05.182Z,79.20
2019-04-06T05:39:05.228Z,79.30
2019-04-06T05:40:05.391Z,81.20
2019-04-06T05:41:05.214Z,78.90
2019-04-06T05:42:05.132Z,81.70
2019-04-06T05:43:05.149Z,80.60
2019-04-06T05:44:05.160Z,83.10
2019-04-06T05:45:05.127Z,77.70
2019-04-06T05:46:05.107Z,79.70
2019-04-06T05:47:05.084Z,80.50
2019-04-06T05:48:05.062Z,79.60
2019-04-06T05:49:05.087Z,78.60
2019-04-06T05:50:05.275Z,78.80
2019-04-06T05:51:05.035Z,78.10
2019-04-06T05:52:05.055Z,79.20
2019-04-06T05:53:05.015Z,78.80
2019-04-06T05:54:05.008Z,77.60
2019-04-06T05:55:05.013Z,80.20
2019-04-06T05:56:04.991Z,78.30
2019-04-06T05:57:05.115Z,78.90
2019-04-06T05:58:09.776Z,77.30
2019-04-06T05:59:04.958Z,75.50
2019-04-06T06:00:05.004Z,77.20
2019-04-06T06:01:04.933Z,75.80
2019-04-06T06:02:04.918Z,77.40
2019-04-06T06:03:05.133Z,77.90
2019-04-06T06:04:04.903Z,75.90
2019-04-06T06:05:04.887Z,76.30
2019-04-06T06:06:04.974Z,76.20
2019-04-06T06:07:04.879Z,76.10
2019-04-06T06:08:04.842Z,76.50
2019-04-06T06:09:04.847Z,75.00
2019-04-06T06:10:04.846Z,73.80
2019-04-06T06:11:05.065Z,75.80
2019-04-06T06:12:04.884Z,76.70
2019-04-06T06:13:04.785Z,74.90
2019-04-06T06:14:04.799Z,73.50
2019-04-06T06:15:04.767Z,73.60
2019-04-06T06:16:04.884Z,73.00
2019-04-06T06:17:04.765Z,78.00
2019-04-06T06:18:04.736Z,72.70
2019-04-06T06:19:04.735Z,73.00
2019-04-06T06:20:04.737Z,73.50
2019-04-06T06:21:04.729Z,73.10
2019-04-06T06:22:04.719Z,73.40
2019-04-06T06:23:04.706Z,75.90
2019-04-06T06:24:04.670Z,72.10
2019-04-06T06:25:04.965Z,69.30
2019-04-06T06:26:04.685Z,70.80
2019-04-06T06:27:04.660Z,72.40
2019-04-06T06:28:13.806Z,70.90
2019-04-06T06:29:04.667Z,69.80
2019-04-06T06:30:04.644Z,71.10
2019-04-06T06:31:04.606Z,70.50
2019-04-06T06:32:04.575Z,69.50
2019-04-06T06:33:04.596Z,72.20
2019-04-06T06:34:04.557Z,73.10
2019-04-06T06:35:04.588Z,69.80
2019-04-06T06:36:04.573Z,71.30
2019-04-06T06:37:04.531Z,72.70
2019-04-06T06:38:04.520Z,71.90
2019-04-06T06:39:04.512Z,71.70
2019-04-06T06:40:04.499Z,70.70
2019-04-06T06:41:04.526Z,71.30
2019-04-06T06:42:04.478Z,72.30
2019-04-06T06:43:04.473Z,70.80
2019-04-06T06:44:04.576Z,70.90
2019-04-06T06:45:04.429Z,71.50
2019-04-06T06:46:04.547Z,67.90
2019-04-06T06:47:04.418Z,70.40
2019-04-06T06:48:04.409Z,68.00
2019-04-06T06:49:04.386Z,69.00
2019-04-06T06:50:04.383Z,69.20
2019-04-06T06:51:04.401Z,70.30
2019-04-06T06:52:04.367Z,67.60
2019-04-06T06:53:04.360Z,70.80
2019-04-06T06:54:04.336Z,68.30
2019-04-06T06:55:04.329Z,70.20
2019-04-06T06:56:04.458Z,69.10
2019-04-06T06:57:04.318Z,70.00
2019-04-06T06:58:04.560Z,68.80
2019-04-06T06:59:04.286Z,69.10
2019-04-06T07:00:04.282Z,68.60
2019-04-06T07:01:04.287Z,67.80
2019-04-06T07:02:04.251Z,68.20
2019-04-06T07:03:04.236Z,71.20
2019-04-06T07:04:04.234Z,67.30
2019-04-06T07:05:04.336Z,66.90
2019-04-06T07:06:04.506Z,66.50
2019-04-06T07:08:13.387Z,59.60
2019-04-06T07:09:14.372Z,63.60
2019-04-06T07:10:14.366Z,64.60
2019-04-06T07:11:14.378Z,65.20
2019-04-06T07:12:14.340Z,66.40
2019-04-06T07:13:14.333Z,65.60
2019-04-06T07:14:14.405Z,65.50
2019-04-06T07:15:14.317Z,66.00
2019-04-06T07:16:14.453Z,64.90
2019-04-06T07:17:14.354Z,63.90
2019-04-06T07:18:14.276Z,62.60
2019-04-06T07:19:14.267Z,63.30
2019-04-06T07:20:14.261Z,62.90
2019-04-06T07:21:16.569Z,67.20
2019-04-06T07:22:14.246Z,61.80
2019-04-06T07:23:14.229Z,63.70
2019-04-06T07:24:14.207Z,56.80
2019-04-06T07:25:14.199Z,60.80
2019-04-06T07:26:14.228Z,61.00
2019-04-06T07:27:14.196Z,60.90
2019-04-06T07:28:14.177Z,61.70
2019-04-06T07:29:14.155Z,63.00
2019-04-06T07:30:14.285Z,58.00
2019-04-06T07:31:14.138Z,60.20
2019-04-06T07:32:14.144Z,60.50
2019-04-06T07:33:14.257Z,59.50
2019-04-06T07:34:14.108Z,59.60
2019-04-06T07:35:14.330Z,57.20
2019-04-06T07:36:14.236Z,57.30
2019-04-06T07:37:14.080Z,57.60
2019-04-06T07:38:14.077Z,56.00
2019-04-06T07:39:14.052Z,55.60
2019-04-06T07:40:14.033Z,55.50
2019-04-06T07:41:14.174Z,59.10
2019-04-06T07:42:14.035Z,53.60
2019-04-06T07:43:14.006Z,55.90
2019-04-06T07:44:13.986Z,53.60
2019-04-06T07:45:13.984Z,54.00
2019-04-06T07:46:14.074Z,54.10
2019-04-06T07:47:14.641Z,53.60
2019-04-06T07:48:13.947Z,53.50
2019-04-06T07:49:13.950Z,51.20
2019-04-06T07:50:13.933Z,53.00
2019-04-06T07:51:13.910Z,51.30
2019-04-06T07:52:13.934Z,52.20
2019-04-06T07:53:13.905Z,49.50
2019-04-06T07:54:13.884Z,51.10
2019-04-06T07:55:13.870Z,50.00
2019-04-06T07:56:13.874Z,50.70
2019-04-06T07:57:14.369Z,49.50
2019-04-06T07:58:13.847Z,50.50
2019-04-06T07:59:13.833Z,47.60
2019-04-06T08:00:13.823Z,49.80
2019-04-06T08:01:13.808Z,49.70
2019-04-06T08:02:14.114Z,50.70
2019-04-06T08:03:13.781Z,50.20
2019-04-06T08:04:13.770Z,48.50
2019-04-06T08:05:13.765Z,49.10
2019-04-06T08:06:13.749Z,49.00
2019-04-06T08:07:13.770Z,49.00
2019-04-06T08:08:13.728Z,46.10
2019-04-06T08:09:13.717Z,47.70
2019-04-06T08:10:13.745Z,48.10
2019-04-06T08:11:13.691Z,47.20
2019-04-06T08:12:13.705Z,48.30
2019-04-06T08:13:13.684Z,46.10
2019-04-06T08:14:13.829Z,47.90
2019-04-06T08:15:13.650Z,46.10
2019-04-06T08:16:13.642Z,47.10
2019-04-06T08:17:13.658Z,46.50
2019-04-06T08:18:13.617Z,47.50
2019-04-06T08:19:13.604Z,47.40
2019-04-06T08:20:13.838Z,46.90
2019-04-06T08:21:13.654Z,48.60
2019-04-06T08:22:13.591Z,47.60
2019-04-06T08:23:13.555Z,47.60
2019-04-06T08:24:13.542Z,44.90
2019-04-06T08:25:13.542Z,47.30
2019-04-06T08:26:13.528Z,48.00
2019-04-06T08:27:13.527Z,46.30
2019-04-06T08:28:13.503Z,48.40
2019-04-06T08:29:13.507Z,46.10
2019-04-06T08:30:13.525Z,46.70
2019-04-06T08:31:13.463Z,46.00
2019-04-06T08:32:13.483Z,46.20
2019-04-06T08:33:13.470Z,47.00
2019-04-06T08:34:14.069Z,45.00
2019-04-06T08:35:23.965Z,46.00
2019-04-06T08:36:13.416Z,46.70
2019-04-06T08:37:13.420Z,46.70
2019-04-06T08:38:13.416Z,46.30
2019-04-06T08:39:13.637Z,46.90
2019-04-06T08:40:13.400Z,46.40
2019-04-06T08:41:13.362Z,46.30
2019-04-06T08:42:13.344Z,46.30
2019-04-06T08:43:13.361Z,47.50
2019-04-06T08:44:13.338Z,44.60
2019-04-06T08:45:14.153Z,45.90
2019-04-06T08:46:13.309Z,46.00
2019-04-06T08:47:13.282Z,44.90
2019-04-06T08:48:13.384Z,45.70
2019-04-06T08:49:13.265Z,46.90
2019-04-06T08:50:13.266Z,46.30
2019-04-06T08:51:13.284Z,46.10
2019-04-06T08:52:13.281Z,46.10
2019-04-06T08:53:13.251Z,46.40
2019-04-06T08:54:13.224Z,47.60
2019-04-06T08:55:13.360Z,45.90
2019-04-06T08:56:13.314Z,46.30
2019-04-06T08:57:13.186Z,46.70
2019-04-06T08:58:13.193Z,46.10
2019-04-06T08:59:13.680Z,45.10
2019-04-06T09:00:13.149Z,45.40
2019-04-06T09:01:13.130Z,45.60
2019-04-06T09:02:13.126Z,46.80
2019-04-06T09:03:13.147Z,45.40
2019-04-06T09:04:13.250Z,46.00
2019-04-06T09:05:13.102Z,45.10
2019-04-06T09:06:13.077Z,44.80
2019-04-06T09:07:13.071Z,45.60
2019-04-06T09:09:22.268Z,42.50
2019-04-06T09:10:23.236Z,45.70
2019-04-06T09:11:23.226Z,46.20
2019-04-06T09:12:23.206Z,46.70
2019-04-06T09:13:23.199Z,46.40
2019-04-06T09:14:23.254Z,45.10
2019-04-06T09:15:23.173Z,46.50
2019-04-06T09:16:23.287Z,46.80
2019-04-06T09:17:23.165Z,45.30
2019-04-06T09:18:23.136Z,46.00
2019-04-06T09:19:23.151Z,45.90
2019-04-06T09:20:23.127Z,46.20
2019-04-06T09:21:23.106Z,47.50
2019-04-06T09:22:23.106Z,45.10
2019-04-06T09:23:23.083Z,47.90
2019-04-06T09:24:23.100Z,47.10
2019-04-06T09:25:23.085Z,46.30
2019-04-06T09:26:23.132Z,45.40
2019-04-06T09:27:23.044Z,45.50
2019-04-06T09:28:23.117Z,45.80
2019-04-06T09:29:24.590Z,45.70
2019-04-06T09:30:23.018Z,47.40
2019-04-06T09:31:23.001Z,48.10
2019-04-06T09:32:23.199Z,47.10
2019-04-06T09:33:22.992Z,47.40
2019-04-06T09:34:23.139Z,48.70
2019-04-06T09:35:22.956Z,47.10
2019-04-06T09:36:22.958Z,47.40
2019-04-06T09:37:22.936Z,47.20
2019-04-06T09:38:23.148Z,47.70
2019-04-06T09:39:22.921Z,47.40
2019-04-06T09:40:22.893Z,48.00
2019-04-06T09:41:22.894Z,47.80
2019-04-06T09:42:22.873Z,46.10
2019-04-06T09:43:22.874Z,46.30
2019-04-06T09:44:22.900Z,47.30
2019-04-06T09:45:22.848Z,47.20
2019-04-06T09:46:22.829Z,48.20
2019-04-06T09:47:22.817Z,47.40
2019-04-06T09:48:22.808Z,47.70
2019-04-06T09:49:22.826Z,45.70
2019-04-06T09:50:22.802Z,45.80
2019-04-06T09:51:22.789Z,46.70
2019-04-06T09:52:22.772Z,46.70
2019-04-06T09:53:22.765Z,46.60
2019-04-06T09:54:22.750Z,45.80
2019-04-06T09:55:22.821Z,45.90
2019-04-06T09:56:22.718Z,46.60
2019-04-06T09:57:22.713Z,44.60
2019-04-06T09:58:22.713Z,45.80
2019-04-06T09:59:34.256Z,45.80
2019-04-06T10:00:22.681Z,46.70
2019-04-06T10:01:22.688Z,48.50
2019-04-06T10:02:22.677Z,46.90
2019-04-06T10:03:22.655Z,46.30
2019-04-06T10:04:22.631Z,43.70
2019-04-06T10:05:22.890Z,45.90
2019-04-06T10:06:22.625Z,45.00
2019-04-06T10:07:22.840Z,45.10
2019-04-06T10:08:22.596Z,46.90
2019-04-06T10:09:22.582Z,46.00
2019-04-06T10:10:22.598Z,46.60
2019-04-06T10:11:22.560Z,47.60
2019-04-06T10:12:22.551Z,46.70
2019-04-06T10:13:22.589Z,47.60
2019-04-06T10:14:22.533Z,46.20
2019-04-06T10:15:22.540Z,46.80
2019-04-06T10:16:22.501Z,46.10
2019-04-06T10:17:22.678Z,44.30
2019-04-06T10:18:22.478Z,46.10
2019-04-06T10:19:22.499Z,45.10
2019-04-06T10:20:22.835Z,46.20
2019-04-06T10:21:22.461Z,45.00
2019-04-06T10:22:22.436Z,46.20
2019-04-06T10:23:22.534Z,46.00
2019-04-06T10:24:22.427Z,47.50
2019-04-06T10:25:22.445Z,46.40
2019-04-06T10:26:22.396Z,45.50
2019-04-06T10:27:22.391Z,46.10
2019-04-06T10:28:22.377Z,46.50
2019-04-06T10:29:22.594Z,46.60
2019-04-06T10:30:22.361Z,48.00
2019-04-06T10:31:22.346Z,46.40
2019-04-06T10:32:22.340Z,47.10
2019-04-06T10:33:22.342Z,45.60
2019-04-06T10:34:22.322Z,46.50
2019-04-06T10:35:22.320Z,46.00
2019-04-06T10:36:22.338Z,46.00
2019-04-06T10:37:22.445Z,45.90
2019-04-06T10:38:22.281Z,45.10
2019-04-06T10:39:22.269Z,44.20
2019-04-06T10:40:22.265Z,45.60
2019-04-06T10:41:22.246Z,45.30
2019-04-06T10:42:22.229Z,44.20
2019-04-06T10:43:22.208Z,43.30
2019-04-06T10:44:22.197Z,43.00
2019-04-06T10:45:22.408Z,42.60
2019-04-06T10:46:22.194Z,42.50
2019-04-06T10:47:22.320Z,42.50
2019-04-06T10:48:22.517Z,43.20
2019-04-06T10:49:22.177Z,42.70
2019-04-06T10:50:22.129Z,43.30
2019-04-06T10:51:22.129Z,42.80
2019-04-06T10:52:22.123Z,43.20
2019-04-06T10:53:22.103Z,43.30
2019-04-06T10:54:22.092Z,43.60
2019-04-06T10:55:22.086Z,44.00
2019-04-06T10:56:22.109Z,43.50
2019-04-06T10:57:22.069Z,43.20
2019-04-06T10:58:22.199Z,43.00
2019-04-06T10:59:22.040Z,42.90
2019-04-06T11:00:22.089Z,43.50
2019-04-06T11:01:22.046Z,43.10
2019-04-06T11:02:22.022Z,42.50
2019-04-06T11:03:21.990Z,43.00
2019-04-06T11:04:21.983Z,44.20
2019-04-06T11:05:21.969Z,41.90
2019-04-06T11:06:21.982Z,42.50
2019-04-06T11:07:22.132Z,42.20
2019-04-06T11:08:22.204Z,42.10
2019-04-06T11:10:31.208Z,37.20
2019-04-06T11:11:32.122Z,42.00
2019-04-06T11:12:32.094Z,41.90
2019-04-06T11:13:32.091Z,41.80
2019-04-06T11:14:32.177Z,40.50
2019-04-06T11:15:32.075Z,42.50
2019-04-06T11:16:32.066Z,40.10
2019-04-06T11:17:32.046Z,41.80
2019-04-06T11:18:32.027Z,40.60
2019-04-06T11:19:32.024Z,40.00
2019-04-06T11:20:32.050Z,39.70
2019-04-06T11:21:32.025Z,40.90
2019-04-06T11:22:32.261Z,41.40
2019-04-06T11:23:32.087Z,42.30
2019-04-06T11:24:31.965Z,41.50
2019-04-06T11:25:32.089Z,41.50
2019-04-06T11:26:31.986Z,41.80
2019-04-06T11:27:32.227Z,42.70
2019-04-06T11:28:31.925Z,40.70
2019-04-06T11:29:31.904Z,41.50
2019-04-06T11:30:31.899Z,41.80
2019-04-06T11:31:32.070Z,41.80
2019-04-06T11:32:31.951Z,41.50
2019-04-06T11:33:32.237Z,40.20
2019-04-06T11:34:31.844Z,40.90
2019-04-06T11:35:31.840Z,40.50
2019-04-06T11:36:31.832Z,39.90
2019-04-06T11:37:31.841Z,38.70
2019-04-06T11:38:31.809Z,40.00
2019-04-06T11:39:31.817Z,39.30
2019-04-06T11:40:31.784Z,37.70
2019-04-06T11:41:32.281Z,38.10
2019-04-06T11:42:31.794Z,37.00
2019-04-06T11:43:31.845Z,39.40
2019-04-06T11:44:31.751Z,37.30
2019-04-06T11:45:31.734Z,37.60
2019-04-06T11:46:32.296Z,39.00
2019-04-06T11:47:32.057Z,38.70
2019-04-06T11:48:31.729Z,38.80
2019-04-06T11:49:31.692Z,39.20
2019-04-06T11:50:31.683Z,37.80
2019-04-06T11:51:31.937Z,37.20
2019-04-06T11:52:31.669Z,35.50
2019-04-06T11:53:31.974Z,33.70
2019-04-06T11:54:31.966Z,34.00
2019-04-06T11:55:31.838Z,34.80
2019-04-06T11:56:31.610Z,34.60
2019-04-06T11:57:31.595Z,34.70
2019-04-06T11:58:31.615Z,35.40
2019-04-06T11:59:31.600Z,35.10
2019-04-06T12:00:31.568Z,34.70
2019-04-06T12:01:31.550Z,34.30
2019-04-06T12:02:31.546Z,34.30
2019-04-06T12:03:31.558Z,33.30
2019-04-06T12:04:31.527Z,32.50
2019-04-06T12:05:31.565Z,30.20
2019-04-06T12:06:31.502Z,30.40
2019-04-06T12:07:31.679Z,31.60
2019-04-06T12:08:31.506Z,32.00
2019-04-06T12:09:31.539Z,32.70
2019-04-06T12:10:31.472Z,32.50
2019-04-06T12:11:31.715Z,33.70
2019-04-06T12:12:31.538Z,33.30
2019-04-06T12:13:31.454Z,32.10
2019-04-06T12:14:31.415Z,31.80
2019-04-06T12:15:31.410Z,32.30
2019-04-06T12:16:31.422Z,31.70
2019-04-06T12:17:31.383Z,30.40
2019-04-06T12:18:31.580Z,31.10
2019-04-06T12:19:31.368Z,30.80
2019-04-06T12:20:31.364Z,29.60
2019-04-06T12:21:31.341Z,32.00
2019-04-06T12:22:31.331Z,31.20
2019-04-06T12:23:33.219Z,29.80
2019-04-06T12:24:31.299Z,31.30
2019-04-06T12:25:31.437Z,30.90
2019-04-06T12:26:31.287Z,29.70
2019-04-06T12:27:31.282Z,30.20
2019-04-06T12:28:31.278Z,30.10
2019-04-06T12:29:31.264Z,30.70
2019-04-06T12:30:37.237Z,31.40
2019-04-06T12:31:31.242Z,31.00
2019-04-06T12:32:31.214Z,31.30
2019-04-06T12:33:31.224Z,31.10
2019-04-06T12:34:31.472Z,31.30
2019-04-06T12:35:31.193Z,31.20
2019-04-06T12:36:31.175Z,32.40
2019-04-06T12:37:31.875Z,31.70
2019-04-06T12:38:31.195Z,32.30
2019-04-06T12:39:31.154Z,30.30
2019-04-06T12:40:31.163Z,30.40
2019-04-06T12:41:31.114Z,30.30
2019-04-06T12:42:31.118Z,31.20
2019-04-06T12:43:32.005Z,29.90
2019-04-06T12:44:31.113Z,29.40
2019-04-06T12:45:31.079Z,30.00
2019-04-06T12:46:31.075Z,28.70
2019-04-06T12:47:31.149Z,29.60
2019-04-06T12:48:31.038Z,28.50
2019-04-06T12:49:31.065Z,28.60
2019-04-06T12:50:31.027Z,28.50
2019-04-06T12:51:31.012Z,28.40
2019-04-06T12:52:31.250Z,28.90
2019-04-06T12:53:30.991Z,27.70
2019-04-06T12:54:31.029Z,28.60
2019-04-06T12:55:31.117Z,29.30
2019-04-06T12:56:31.135Z,28.80
2019-04-06T12:57:30.953Z,28.90
2019-04-06T12:58:30.929Z,29.80
2019-04-06T12:59:31.164Z,28.60